Time;durP1;ratioP1;P1;durP2;ratioP2;P2;SDS_P1;SDS_P2;PMS_P1;PMS_P2;Temp;Humidity;BMP_temperature;BMP_pressure;BME280_temperature;BME280_humidity;BME280_pressure;Samples;Min_cycle;Max_cycle;Signal;HPM_P1;HPM_P2
2024/03/04 00:00:16;;;;;;;21.50;13.10;;;11.20;99.90;;;;;;5022009;28;20112;-77
2024/03/04 00:02:42;;;;;;;;;;;11.30;99.90;;;;;;5017640;28;20032;-73
2024/03/04 00:05:08;;;;;;;17.73;12.93;;;11.20;99.90;;;;;;5005065;28;20548;-76
2024/03/04 00:07:34;;;;;;;21.00;14.50;;;11.20;99.90;;;;;;5019630;28;22230;-76
2024/03/04 00:10:00;;;;;;;21.42;13.85;;;11.20;99.90;;;;;;5017897;28;20703;-75
2024/03/04 00:12:25;;;;;;;26.58;16.58;;;11.10;99.90;;;;;;5020650;28;20022;-76
2024/03/04 00:14:51;;;;;;;26.02;15.88;;;11.00;99.90;;;;;;5018774;28;20100;-74
2024/03/04 00:17:17;;;;;;;24.70;15.23;;;11.10;99.90;;;;;;5018882;28;20048;-74
2024/03/04 00:19:43;;;;;;;24.25;15.52;;;11.10;99.90;;;;;;5002366;28;20024;-75
2024/03/04 00:22:09;;;;;;;23.67;15.63;;;11.00;99.90;;;;;;5018770;28;20091;-74
2024/03/04 00:24:35;;;;;;;26.67;17.77;;;11.00;99.90;;;;;;5015806;28;20058;-75
2024/03/04 00:27:00;;;;;;;25.80;17.25;;;11.00;99.90;;;;;;5014400;28;20057;-73
2024/03/04 00:29:29;;;;;;;27.15;14.63;;;11.10;99.90;;;;;;5003280;28;20061;-74
2024/03/04 00:31:54;;;;;;;23.15;14.60;;;11.10;99.90;;;;;;5017234;28;20104;-74
2024/03/04 00:34:20;;;;;;;28.20;16.50;;;11.00;99.90;;;;;;5017742;28;20116;-74
2024/03/04 00:36:46;;;;;;;23.35;15.50;;;11.00;99.90;;;;;;5016847;28;20066;-75
2024/03/04 00:39:12;;;;;;;25.17;15.48;;;11.00;99.90;;;;;;5019010;28;20028;-74
2024/03/04 00:41:38;;;;;;;22.08;14.50;;;11.00;99.90;;;;;;5017788;28;20029;-76
2024/03/04 00:44:04;;;;;;;22.90;15.77;;;11.00;99.90;;;;;;5003290;28;20021;-74
2024/03/04 00:46:30;;;;;;;26.73;16.38;;;10.90;99.90;;;;;;5017796;28;20088;-75
2024/03/04 00:48:56;;;;;;;23.60;15.82;;;10.80;99.90;;;;;;5020790;28;20083;-76
2024/03/04 00:51:21;;;;;;;20.58;14.73;;;10.80;99.90;;;;;;5020117;28;20025;-74
2024/03/04 00:53:47;;;;;;;21.55;14.90;;;10.90;99.90;;;;;;5018332;28;20436;-75
2024/03/04 00:56:14;;;;;;;24.30;15.38;;;10.90;99.90;;;;;;5014918;28;20463;-76
2024/03/04 00:58:43;;;;;;;25.63;14.80;;;10.90;99.90;;;;;;5017035;28;20033;-76
2024/03/04 01:01:09;;;;;;;23.20;14.57;;;11.00;99.90;;;;;;5015522;28;20029;-75
2024/03/04 01:03:35;;;;;;;23.17;14.65;;;11.00;99.90;;;;;;5017931;28;20025;-75
2024/03/04 01:06:02;;;;;;;23.45;14.25;;;11.00;99.90;;;;;;5020221;28;20041;-74
2024/03/04 01:08:28;;;;;;;21.77;13.68;;;11.00;99.90;;;;;;5018705;28;20017;-74
2024/03/04 01:10:54;;;;;;;24.08;15.85;;;11.00;99.90;;;;;;5019241;28;20026;-74
2024/03/04 01:13:21;;;;;;;21.33;14.30;;;11.00;99.90;;;;;;5018183;28;20083;-76
2024/03/04 01:15:47;;;;;;;20.10;14.55;;;10.90;99.90;;;;;;5017996;28;20064;-75
2024/03/04 01:18:14;;;;;;;23.88;13.20;;;11.00;99.90;;;;;;5019594;28;20033;-74
2024/03/04 01:20:40;;;;;;;19.55;13.00;;;11.00;99.90;;;;;;5021892;28;20021;-75
2024/03/04 01:23:08;;;;;;;19.75;12.23;;;11.10;99.90;;;;;;5026764;28;20115;-75
2024/03/04 01:25:34;;;;;;;18.02;12.73;;;11.10;99.90;;;;;;5032096;28;20026;-74
2024/03/04 01:28:01;;;;;;;18.42;11.63;;;11.00;99.90;;;;;;5031658;28;20531;-74
2024/03/04 01:30:27;;;;;;;19.83;12.10;;;11.00;99.90;;;;;;5032120;28;20075;-75
2024/03/04 01:32:53;;;;;;;18.83;11.80;;;11.00;99.90;;;;;;5032516;28;20037;-75
2024/03/04 01:35:18;;;;;;;17.05;11.60;;;10.90;99.90;;;;;;5031480;28;20028;-74
2024/03/04 01:37:45;;;;;;;16.50;11.32;;;10.90;99.90;;;;;;5031313;28;20033;-75
2024/03/04 01:40:13;;;;;;;17.58;10.63;;;10.90;99.90;;;;;;5032591;28;20108;-71
2024/03/04 01:42:42;;;;;;;16.92;10.48;;;11.00;99.90;;;;;;5032149;28;20029;-74
2024/03/04 01:45:23;;;;;;;14.57;9.52;;;10.90;99.90;;;;;;5032283;28;20112;-72
2024/03/04 01:47:50;;;;;;;12.95;9.48;;;11.00;99.90;;;;;;5030078;28;20167;-74
2024/03/04 01:50:16;;;;;;;12.50;9.48;;;11.00;99.90;;;;;;5030643;28;20029;-77
2024/03/04 01:52:42;;;;;;;12.35;10.05;;;11.00;99.90;;;;;;5031786;28;20117;-74
2024/03/04 01:55:08;;;;;;;15.82;8.80;;;11.00;99.90;;;;;;5031717;28;20024;-74
2024/03/04 01:57:36;;;;;;;13.15;9.25;;;11.00;99.90;;;;;;5030404;28;20056;-79
2024/03/04 02:00:11;;;;;;;10.57;8.25;;;11.10;99.90;;;;;;5032025;28;20097;-75
2024/03/04 02:02:38;;;;;;;11.77;8.57;;;11.10;99.90;;;;;;5031499;28;20056;-74
2024/03/04 02:05:08;;;;;;;11.65;7.88;;;11.10;99.90;;;;;;5029908;28;20025;-77
2024/03/04 02:07:38;;;;;;;12.35;7.57;;;11.10;99.90;;;;;;5031216;28;20036;-74
2024/03/04 02:10:08;;;;;;;11.48;7.68;;;11.10;99.90;;;;;;5031676;28;20029;-74
2024/03/04 02:12:39;;;;;;;15.40;8.05;;;11.00;99.90;;;;;;5030750;28;20037;-74
2024/03/04 02:15:06;;;;;;;12.20;8.27;;;11.00;99.90;;;;;;5030599;28;20018;-74
2024/03/04 02:17:32;;;;;;;11.23;7.50;;;11.00;99.90;;;;;;5031507;28;20030;-74
2024/03/04 02:20:24;;;;;;;14.95;8.80;;;10.90;99.90;;;;;;5014006;28;20601;-76
2024/03/04 02:22:50;;;;;;;12.35;8.23;;;11.00;99.90;;;;;;5028856;28;20540;-75
2024/03/04 02:25:16;;;;;;;13.88;8.30;;;11.00;99.90;;;;;;5031534;28;20034;-74
2024/03/04 02:27:42;;;;;;;13.45;8.82;;;11.00;99.90;;;;;;5031199;28;20026;-74
2024/03/04 02:30:08;;;;;;;15.25;8.80;;;11.00;99.90;;;;;;5031697;28;20033;-74
2024/03/04 02:32:35;;;;;;;13.18;8.63;;;11.00;99.90;;;;;;5030955;28;20036;-75
2024/03/04 02:35:07;;;;;;;12.93;7.82;;;11.00;99.90;;;;;;5031336;28;20041;-77
2024/03/04 02:37:36;;;;;;;;;;;11.10;99.90;;;;;;5031147;28;20474;-74
2024/03/04 02:40:06;;;;;;;13.65;8.57;;;10.80;99.90;;;;;;5031296;28;19905;-74
2024/03/04 02:42:36;;;;;;;17.35;8.50;;;10.80;99.90;;;;;;5031825;28;20359;-73
2024/03/04 02:45:02;;;;;;;12.68;8.73;;;10.80;99.90;;;;;;5013101;28;20014;-74
2024/03/04 02:47:27;;;;;;;16.90;9.45;;;10.80;99.90;;;;;;5031749;28;20026;-75
2024/03/04 02:49:53;;;;;;;15.88;8.48;;;10.90;99.90;;;;;;5028763;28;20034;-75
2024/03/04 02:52:19;;;;;;;15.85;8.93;;;10.90;99.90;;;;;;5018678;28;20088;-77
2024/03/04 02:54:44;;;;;;;11.82;8.20;;;10.80;99.90;;;;;;5024073;28;20029;-74
2024/03/04 02:57:10;;;;;;;15.15;8.65;;;10.80;99.90;;;;;;5034607;28;20022;-73
2024/03/04 02:59:37;;;;;;;15.02;9.18;;;10.80;99.90;;;;;;5034811;28;20065;-75
2024/03/04 03:02:05;;;;;;;17.80;9.50;;;10.70;99.90;;;;;;5033885;28;20113;-74
2024/03/04 03:04:30;;;;;;;12.95;8.63;;;10.80;99.90;;;;;;5033264;28;20087;-74
2024/03/04 03:06:57;;;;;;;10.50;8.10;;;10.90;99.90;;;;;;5033940;28;20813;-75
2024/03/04 03:09:23;;;;;;;12.60;8.20;;;10.80;99.90;;;;;;5034942;28;20087;-74
2024/03/04 03:11:49;;;;;;;12.25;8.48;;;10.80;99.90;;;;;;5035380;28;20029;-74
2024/03/04 03:14:15;;;;;;;15.10;8.23;;;10.80;99.90;;;;;;5035003;28;20386;-75
2024/03/04 03:16:41;;;;;;;10.73;8.52;;;10.80;99.90;;;;;;5035167;28;20504;-74
2024/03/04 03:19:06;;;;;;;9.85;7.43;;;10.80;99.90;;;;;;5033200;28;20041;-74
2024/03/04 03:21:33;;;;;;;14.35;7.93;;;10.80;99.90;;;;;;5017201;28;20423;-74
2024/03/04 03:24:00;;;;;;;12.57;7.30;;;10.70;99.90;;;;;;5016742;28;20028;-75
2024/03/04 03:26:26;;;;;;;15.18;8.25;;;10.70;99.90;;;;;;5033951;28;20030;-74
2024/03/04 03:28:52;;;;;;;9.88;7.03;;;10.80;99.90;;;;;;5016568;28;20022;-73
2024/03/04 03:31:22;;;;;;;9.57;7.35;;;10.60;99.90;;;;;;5034838;28;20018;-73
2024/03/04 03:33:48;;;;;;;11.48;8.02;;;10.70;99.90;;;;;;5034531;28;20237;-78
2024/03/04 03:36:14;;;;;;;12.10;7.85;;;10.70;99.90;;;;;;5034130;28;20034;-77
2024/03/04 03:38:39;;;;;;;10.95;8.10;;;10.80;99.90;;;;;;5033681;28;20505;-74
2024/03/04 03:41:06;;;;;;;11.00;7.60;;;10.80;99.90;;;;;;5034312;28;20470;-74
2024/03/04 03:43:32;;;;;;;13.43;7.65;;;10.80;99.90;;;;;;5033706;28;20025;-74
2024/03/04 03:45:57;;;;;;;10.57;7.40;;;10.70;99.90;;;;;;5034230;28;20438;-76
2024/03/04 03:48:25;;;;;;;10.88;7.32;;;10.80;99.90;;;;;;5033459;28;20025;-76
2024/03/04 03:50:51;;;;;;;11.85;7.20;;;10.70;99.90;;;;;;5016692;28;20021;-76
2024/03/04 03:53:17;;;;;;;11.13;6.47;;;10.70;99.90;;;;;;5033584;28;20041;-74
2024/03/04 03:55:42;;;;;;;9.48;6.25;;;10.60;99.90;;;;;;5034525;28;20029;-74
2024/03/04 03:58:08;;;;;;;10.30;6.68;;;10.70;99.90;;;;;;5016334;28;20041;-74
2024/03/04 04:00:36;;;;;;;10.43;6.35;;;10.70;99.90;;;;;;5034082;28;20030;-75
2024/03/04 04:03:02;;;;;;;8.00;6.47;;;10.60;99.90;;;;;;5033356;28;20032;-74
2024/03/04 04:05:27;;;;;;;8.25;6.47;;;10.70;99.90;;;;;;5032615;28;20018;-74
2024/03/04 04:07:53;;;;;;;8.27;6.10;;;10.60;99.90;;;;;;5033127;28;20079;-74
2024/03/04 04:10:20;;;;;;;7.63;5.93;;;10.60;99.90;;;;;;5033643;28;20025;-75
2024/03/04 04:12:45;;;;;;;10.77;6.10;;;10.60;99.90;;;;;;5032107;28;20040;-75
2024/03/04 04:15:11;;;;;;;8.40;6.10;;;10.60;99.90;;;;;;5016061;28;20030;-73
2024/03/04 04:17:37;;;;;;;8.85;5.88;;;10.70;99.90;;;;;;5033766;28;20029;-74
2024/03/04 04:20:03;;;;;;;8.65;5.72;;;10.70;99.90;;;;;;5032613;28;20030;-74
2024/03/04 04:22:29;;;;;;;8.30;5.07;;;10.70;99.90;;;;;;5033482;28;20018;-74
2024/03/04 04:24:57;;;;;;;8.23;5.65;;;10.70;99.90;;;;;;5033786;28;20437;-76
2024/03/04 04:27:22;;;;;;;6.32;5.15;;;10.60;99.90;;;;;;5033566;28;20021;-74
2024/03/04 04:29:49;;;;;;;7.82;5.40;;;10.60;99.90;;;;;;5032933;28;20033;-74
2024/03/04 04:32:15;;;;;;;6.55;4.78;;;10.70;99.90;;;;;;5031895;28;20017;-73
2024/03/04 04:34:41;;;;;;;8.43;5.30;;;10.70;99.90;;;;;;5033544;28;20041;-73
2024/03/04 04:37:09;;;;;;;11.32;5.00;;;10.70;99.90;;;;;;5032314;28;20021;-75
2024/03/04 04:39:40;;;;;;;6.97;4.72;;;10.70;99.90;;;;;;5033432;28;20021;-76
2024/03/04 04:42:06;;;;;;;8.48;5.10;;;10.70;99.90;;;;;;5033246;28;20025;-75
2024/03/04 04:44:33;;;;;;;5.22;4.38;;;10.60;99.90;;;;;;5032977;28;20095;-73
2024/03/04 04:46:59;;;;;;;5.43;4.90;;;10.60;99.90;;;;;;5031685;28;20034;-75
2024/03/04 04:49:25;;;;;;;5.00;4.45;;;10.60;99.90;;;;;;5033340;28;20063;-73
2024/03/04 04:51:51;;;;;;;5.38;4.65;;;10.60;99.90;;;;;;5032764;28;20493;-75
2024/03/04 04:54:16;;;;;;;6.82;4.80;;;10.70;99.90;;;;;;5015419;28;20363;-73
2024/03/04 04:56:42;;;;;;;6.70;4.30;;;10.70;99.90;;;;;;5031809;28;20059;-73
2024/03/04 04:59:08;;;;;;;6.00;4.50;;;10.70;99.90;;;;;;5033010;28;20021;-74
2024/03/04 05:01:34;;;;;;;5.70;4.13;;;10.60;99.90;;;;;;5032865;28;20480;-74
2024/03/04 05:04:00;;;;;;;6.55;4.45;;;10.60;99.90;;;;;;5033266;28;20458;-76
2024/03/04 05:06:25;;;;;;;5.75;4.57;;;10.60;99.90;;;;;;5031597;28;20021;-73
2024/03/04 05:08:51;;;;;;;8.95;4.30;;;10.60;99.90;;;;;;5032962;28;20442;-75
2024/03/04 05:11:17;;;;;;;7.55;4.35;;;10.60;99.90;;;;;;5025905;28;20031;-74
2024/03/04 05:13:44;;;;;;;5.63;3.67;;;10.60;99.90;;;;;;5022627;28;20030;-75
2024/03/04 05:16:10;;;;;;;5.28;3.85;;;10.60;99.90;;;;;;5030083;28;20063;-73
2024/03/04 05:18:36;;;;;;;5.28;3.85;;;10.60;99.90;;;;;;5032023;28;20541;-74
2024/03/04 05:21:03;;;;;;;4.75;3.40;;;10.50;99.90;;;;;;5014615;28;20113;-75
2024/03/04 05:23:30;;;;;;;4.70;3.60;;;10.60;99.90;;;;;;5032155;28;20025;-74
2024/03/04 05:25:55;;;;;;;4.05;3.33;;;10.60;99.90;;;;;;5032375;28;20025;-74
2024/03/04 05:28:23;;;;;;;5.63;3.58;;;10.50;99.90;;;;;;5030397;28;20032;-78
2024/03/04 05:30:49;;;;;;;7.35;3.38;;;10.50;99.90;;;;;;5020988;28;20049;-77
2024/03/04 05:33:15;;;;;;;4.82;3.60;;;10.60;99.90;;;;;;5031557;28;20520;-74
2024/03/04 05:35:41;;;;;;;6.88;4.82;;;10.50;99.90;;;;;;5031913;28;20099;-76
2024/03/04 05:38:06;;;;;;;6.45;3.90;;;10.50;99.90;;;;;;5032664;28;20037;-75
2024/03/04 05:40:32;;;;;;;4.25;3.72;;;10.50;99.90;;;;;;5032384;28;20100;-73
2024/03/04 05:42:58;;;;;;;7.78;4.22;;;10.50;99.90;;;;;;5032231;28;20055;-74
2024/03/04 05:45:24;;;;;;;7.18;4.55;;;10.40;99.90;;;;;;5031780;28;20033;-75
2024/03/04 05:47:49;;;;;;;5.07;3.63;;;10.40;99.90;;;;;;5031196;28;20170;-77
2024/03/04 05:50:15;;;;;;;4.97;4.13;;;10.50;99.90;;;;;;5032331;28;20359;-78
2024/03/04 05:52:42;;;;;;;6.15;4.05;;;10.50;99.90;;;;;;5029012;28;20025;-76
2024/03/04 05:55:08;;;;;;;6.43;3.60;;;10.50;99.90;;;;;;5020948;28;20116;-75
2024/03/04 05:57:36;;;;;;;4.80;3.65;;;10.60;99.90;;;;;;5031601;28;20056;-76
2024/03/04 06:00:11;;;;;;;12.70;4.00;;;10.60;99.90;;;;;;5032177;28;20099;-75
2024/03/04 06:02:38;;;;;;;6.85;3.60;;;10.60;99.90;;;;;;5031758;28;20036;-79
2024/03/04 06:05:05;;;;;;;3.95;3.50;;;10.50;99.90;;;;;;5014073;28;20022;-75
2024/03/04 06:07:31;;;;;;;6.32;3.75;;;10.50;99.90;;;;;;5030908;28;20026;-75
2024/03/04 06:09:56;;;;;;;7.75;4.07;;;10.60;99.90;;;;;;5032063;28;20038;-75
2024/03/04 06:12:22;;;;;;;4.47;3.67;;;10.50;99.90;;;;;;5031897;28;20466;-78
2024/03/04 06:14:48;;;;;;;7.68;3.70;;;10.60;99.90;;;;;;5018370;28;20022;-77
2024/03/04 06:17:13;;;;;;;6.35;3.90;;;10.60;99.90;;;;;;5030677;28;20052;-76
2024/03/04 06:19:39;;;;;;;9.90;4.18;;;10.60;99.90;;;;;;5030927;28;20030;-76
2024/03/04 06:22:05;;;;;;;4.82;3.47;;;10.60;99.90;;;;;;5030980;28;20485;-75
2024/03/04 06:24:34;;;;;;;7.20;4.47;;;10.60;99.90;;;;;;5032404;28;20024;-75
2024/03/04 06:27:03;;;;;;;9.10;3.58;;;10.60;99.90;;;;;;5035271;28;20029;-76
2024/03/04 06:29:33;;;;;;;5.97;3.92;;;10.60;99.90;;;;;;5035203;28;20067;-76
2024/03/04 06:32:00;;;;;;;5.55;4.35;;;10.60;99.90;;;;;;5016950;28;20037;-77
2024/03/04 06:34:26;;;;;;;8.25;3.97;;;10.60;99.90;;;;;;5035478;28;20079;-75
2024/03/04 06:36:52;;;;;;;6.75;4.10;;;10.60;99.90;;;;;;5016544;28;20029;-77
2024/03/04 06:39:21;;;;;;;5.60;3.90;;;10.60;99.90;;;;;;5033340;28;20029;-77
2024/03/04 06:41:54;;;;;;;3.35;3.05;;;10.70;99.90;;;;;;5035429;28;20028;-75
2024/03/04 06:44:19;;;;;;;7.68;3.15;;;10.60;99.90;;;;;;5017153;28;20045;-77
2024/03/04 06:46:46;;;;;;;6.82;3.35;;;10.70;99.90;;;;;;5034603;28;20030;-77
2024/03/04 06:49:11;;;;;;;5.15;2.80;;;10.70;99.90;;;;;;5034887;28;20018;-77
2024/03/04 06:51:38;;;;;;;5.15;3.40;;;10.70;99.90;;;;;;5034650;28;20034;-76
2024/03/04 06:54:05;;;;;;;8.57;3.65;;;10.70;99.90;;;;;;5035146;28;20452;-77
2024/03/04 06:56:31;;;;;;;5.05;3.30;;;10.70;99.90;;;;;;5017034;28;20021;-77
2024/03/04 06:58:58;;;;;;;6.30;3.05;;;10.70;99.90;;;;;;5034941;28;20112;-77
2024/03/04 07:01:24;;;;;;;5.75;3.22;;;10.70;99.90;;;;;;5033993;28;20025;-75
2024/03/04 07:03:49;;;;;;;6.28;3.70;;;10.70;99.90;;;;;;5017450;28;20036;-74
2024/03/04 07:06:15;;;;;;;8.65;3.22;;;10.80;99.90;;;;;;5035035;28;20021;-76
2024/03/04 07:08:41;;;;;;;5.80;3.10;;;10.80;99.90;;;;;;5017634;28;20022;-76
2024/03/04 07:11:09;;;;;;;6.20;3.10;;;10.80;99.90;;;;;;5034446;28;20482;-75
2024/03/04 07:13:35;;;;;;;8.77;3.70;;;10.80;99.90;;;;;;5035093;28;20367;-76
2024/03/04 07:16:01;;;;;;;9.85;3.38;;;10.80;99.90;;;;;;5033609;28;20032;-77
2024/03/04 07:18:31;;;;;;;5.80;3.85;;;10.70;99.90;;;;;;5033035;28;20049;-76
2024/03/04 07:20:57;;;;;;;6.88;3.78;;;10.80;99.90;;;;;;5034235;28;20038;-76
2024/03/04 07:23:23;;;;;;;6.03;3.50;;;10.80;99.90;;;;;;5022956;28;20048;-75
2024/03/04 07:25:48;;;;;;;6.22;3.25;;;10.80;99.90;;;;;;5029739;28;20456;-75
2024/03/04 07:28:14;;;;;;;4.43;3.13;;;10.90;99.90;;;;;;5034425;28;20393;-78
2024/03/04 07:30:40;;;;;;;7.75;3.50;;;10.90;99.90;;;;;;5034119;28;20397;-75
2024/03/04 07:33:11;;;;;;;7.13;4.07;;;11.10;99.90;;;;;;5031651;28;20100;-75
2024/03/04 07:35:38;;;;;;;7.25;3.95;;;11.00;99.90;;;;;;5033923;28;20125;-76
2024/03/04 07:38:04;;;;;;;6.25;4.00;;;11.00;99.90;;;;;;5034979;28;20055;-75
2024/03/04 07:40:30;;;;;;;5.38;3.92;;;11.00;99.90;;;;;;5034347;28;20021;-78
2024/03/04 07:42:56;;;;;;;7.40;3.80;;;11.00;99.90;;;;;;5034588;28;20025;-75
2024/03/04 07:45:22;;;;;;;6.13;3.20;;;11.00;99.90;;;;;;5030992;28;20097;-74
2024/03/04 07:47:48;;;;;;;6.10;3.40;;;11.00;99.90;;;;;;5029420;28;20080;-76
2024/03/04 07:50:14;;;;;;;5.38;3.40;;;11.10;99.90;;;;;;5033742;28;20076;-76
2024/03/04 07:52:40;;;;;;;8.73;3.00;;;11.20;99.90;;;;;;5033620;28;21350;-79
2024/03/04 07:55:08;;;;;;;7.97;2.97;;;11.10;99.90;;;;;;5034104;28;20021;-73
2024/03/04 07:57:34;;;;;;;5.10;3.13;;;11.20;99.90;;;;;;5033602;28;20029;-73
2024/03/04 07:59:59;;;;;;;6.72;2.85;;;11.30;99.90;;;;;;5033541;28;20022;-73
2024/03/04 08:02:25;;;;;;;5.05;3.17;;;11.30;99.90;;;;;;5033999;28;20548;-72
2024/03/04 08:04:50;;;;;;;4.78;2.60;;;11.40;99.90;;;;;;5034061;28;20032;-71
2024/03/04 08:07:16;;;;;;;9.27;2.90;;;11.50;99.90;;;;;;5033377;28;20083;-76
2024/03/04 08:09:42;;;;;;;5.65;2.15;;;11.50;99.90;;;;;;5011474;28;20044;-73
2024/03/04 08:12:08;;;;;;;5.80;2.28;;;11.50;99.90;;;;;;5015017;28;20060;-73
2024/03/04 08:14:36;;;;;;;6.88;2.38;;;11.60;99.90;;;;;;5032326;28;20022;-80
2024/03/04 08:17:02;;;;;;;4.45;2.58;;;11.70;99.90;;;;;;5014627;28;20021;-73
2024/03/04 08:19:28;;;;;;;4.78;2.58;;;11.70;99.90;;;;;;5024555;28;20021;-79
2024/03/04 08:21:53;;;;;;;4.47;2.45;;;11.70;99.90;;;;;;5027930;28;20458;-75
2024/03/04 08:24:19;;;;;;;9.35;2.60;;;11.60;99.90;;;;;;5032472;28;20025;-75
2024/03/04 08:26:45;;;;;;;4.38;2.80;;;11.70;99.90;;;;;;5024732;28;20471;-79
2024/03/04 08:29:10;;;;;;;3.58;2.80;;;11.80;99.90;;;;;;5029673;28;20024;-75
2024/03/04 08:31:37;;;;;;;5.43;2.78;;;11.70;99.90;;;;;;5027952;28;20478;-74
2024/03/04 08:34:05;;;;;;;4.05;2.72;;;11.80;99.90;;;;;;5033499;28;20032;-74
2024/03/04 08:36:32;;;;;;;7.05;2.95;;;11.90;99.90;;;;;;5032494;28;20096;-75
2024/03/04 08:38:58;;;;;;;5.10;3.33;;;12.00;99.90;;;;;;5032973;28;20068;-81
2024/03/04 08:41:27;;;;;;;5.82;2.63;;;12.00;99.90;;;;;;5033812;28;20025;-82
2024/03/04 08:43:52;;;;;;;4.53;2.70;;;12.10;99.90;;;;;;5032421;28;20029;-86
2024/03/04 08:46:21;;;;;;;5.95;2.67;;;12.10;99.90;;;;;;5015390;28;20025;-77
2024/03/04 08:48:47;;;;;;;5.93;2.95;;;12.20;99.90;;;;;;5031360;28;20029;-89
2024/03/04 08:51:14;;;;;;;4.93;2.33;;;12.20;99.90;;;;;;5033370;28;20036;-84
2024/03/04 08:53:39;;;;;;;4.97;2.47;;;12.40;99.90;;;;;;5033443;28;20029;-81
2024/03/04 08:56:06;;;;;;;5.50;2.13;;;12.30;99.90;;;;;;5014898;28;20025;-82
2024/03/04 08:58:32;;;;;;;2.88;1.90;;;12.40;99.90;;;;;;5015464;28;20080;-84
2024/03/04 09:00:59;;;;;;;2.83;1.77;;;12.40;99.90;;;;;;5032978;28;20516;-85
2024/03/04 09:03:25;;;;;;;3.88;1.83;;;12.60;99.90;;;;;;5033249;28;20104;-87
2024/03/04 09:05:51;;;;;;;3.88;1.92;;;12.70;99.90;;;;;;5032365;28;20344;-87
2024/03/04 09:08:17;;;;;;;4.40;1.95;;;12.70;99.90;;;;;;5033185;28;20060;-82
2024/03/04 09:10:44;;;;;;;4.35;1.92;;;12.70;99.90;;;;;;5032496;28;20026;-81
2024/03/04 09:13:20;;;;;;;3.47;2.00;;;12.80;99.90;;;;;;5032515;28;20112;-79
2024/03/04 09:15:50;;;;;;;2.90;2.03;;;12.70;99.90;;;;;;5013289;28;20025;-76
2024/03/04 09:18:16;;;;;;;2.25;1.73;;;12.80;99.90;;;;;;5012605;28;20065;-79
2024/03/04 09:20:41;;;;;;;2.85;1.58;;;12.80;99.90;;;;;;5004910;28;20916;-82
2024/03/04 09:23:07;;;;;;;3.88;1.90;;;12.70;99.90;;;;;;4964771;28;20038;-75
2024/03/04 09:25:33;;;;;;;3.58;1.77;;;12.90;99.90;;;;;;4958963;28;20029;-80
2024/03/04 09:27:59;;;;;;;2.10;1.90;;;12.80;99.90;;;;;;4930579;28;20041;-78
2024/03/04 09:30:25;;;;;;;4.57;2.03;;;12.80;99.90;;;;;;4912039;28;20030;-75
2024/03/04 09:32:50;;;;;;;3.35;1.60;;;12.80;99.90;;;;;;4963588;28;20036;-76
2024/03/04 09:35:16;;;;;;;5.38;1.98;;;12.80;99.90;;;;;;5023067;28;20524;-74
2024/03/04 09:37:44;;;;;;;3.25;2.05;;;12.90;99.90;;;;;;5032195;28;20037;-74
2024/03/04 09:40:11;;;;;;;3.20;1.70;;;12.90;99.90;;;;;;5031895;28;20048;-74
2024/03/04 09:42:41;;;;;;;2.40;1.60;;;12.90;99.90;;;;;;5023732;28;20029;-74
2024/03/04 09:45:09;;;;;;;3.15;2.05;;;13.00;99.90;;;;;;5031901;28;20018;-75
2024/03/04 09:47:36;;;;;;;5.10;2.00;;;13.10;99.90;;;;;;5031732;28;20044;-73
2024/03/04 09:50:03;;;;;;;2.80;1.70;;;13.10;99.90;;;;;;5031824;28;20033;-75
2024/03/04 09:52:30;;;;;;;3.85;1.92;;;13.10;99.90;;;;;;5025235;28;20029;-75
2024/03/04 09:54:57;;;;;;;3.08;1.83;;;13.20;99.90;;;;;;5031682;28;20025;-75
2024/03/04 09:57:23;;;;;;;3.45;1.70;;;13.20;99.90;;;;;;5031577;28;20021;-75
2024/03/04 09:59:49;;;;;;;6.22;1.83;;;13.30;99.90;;;;;;5014048;28;20176;-73
2024/03/04 10:02:16;;;;;;;3.33;1.58;;;13.30;99.90;;;;;;5024586;28;20030;-75
2024/03/04 10:04:43;;;;;;;4.00;2.00;;;13.40;99.90;;;;;;5017773;28;20105;-73
2024/03/04 10:07:09;;;;;;;3.05;1.60;;;13.40;99.90;;;;;;5011374;28;20030;-74
2024/03/04 10:09:35;;;;;;;2.47;1.50;;;13.50;99.90;;;;;;5030593;28;20079;-75
2024/03/04 10:12:03;;;;;;;3.15;1.77;;;13.60;99.90;;;;;;5031225;28;20025;-74
2024/03/04 10:14:32;;;;;;;4.32;1.90;;;13.70;99.90;;;;;;5031974;28;20077;-77
2024/03/04 10:16:58;;;;;;;2.47;1.70;;;13.60;99.90;;;;;;5030589;28;20385;-80
2024/03/04 10:19:24;;;;;;;3.95;2.60;;;13.50;99.90;;;;;;5014323;28;20030;-76
2024/03/04 10:21:49;;;;;;;2.88;1.88;;;13.50;99.90;;;;;;5031265;28;20039;-76
2024/03/04 10:24:15;;;;;;;5.18;2.25;;;13.70;99.90;;;;;;5031469;28;20029;-78
2024/03/04 10:26:47;;;;;;;4.60;2.25;;;13.60;99.90;;;;;;5014069;28;20025;-76
2024/03/04 10:29:15;;;;;;;4.78;2.45;;;13.60;99.90;;;;;;5014128;28;20060;-79
2024/03/04 10:31:54;;;;;;;3.33;1.75;;;13.70;99.90;;;;;;5031613;28;20422;-78
2024/03/04 10:34:20;;;;;;;10.90;2.60;;;13.80;99.90;;;;;;5031393;28;20033;-78
2024/03/04 10:36:51;;;;;;;4.38;2.40;;;13.70;99.90;;;;;;5030990;28;20113;-74
2024/03/04 10:39:16;;;;;;;3.20;2.20;;;13.80;99.90;;;;;;5030820;28;20065;-75
2024/03/04 10:41:48;;;;;;;4.40;2.53;;;13.90;99.90;;;;;;5030914;28;20053;-75
2024/03/04 10:44:27;;;;;;;4.23;2.60;;;14.00;99.90;;;;;;5031162;28;20024;-74
2024/03/04 10:46:56;;;;;;;5.55;2.60;;;13.90;99.90;;;;;;5031277;28;20076;-74
2024/03/04 10:49:24;;;;;;;3.88;2.38;;;14.00;99.90;;;;;;5031435;28;20064;-74
2024/03/04 10:51:51;;;;;;;3.55;3.13;;;13.90;99.90;;;;;;5030594;28;20100;-74
2024/03/04 10:54:23;;;;;;;4.72;2.80;;;13.80;99.90;;;;;;5031047;28;20030;-79
2024/03/04 10:56:58;;;;;;;4.03;2.65;;;13.90;99.90;;;;;;5031229;28;20029;-73
2024/03/04 10:59:34;;;;;;;5.10;3.47;;;14.00;99.90;;;;;;5031421;28;20022;-74
2024/03/04 11:02:06;;;;;;;7.32;4.40;;;14.10;99.90;;;;;;5002419;28;20026;-74
2024/03/04 11:04:31;;;;;;;6.20;5.00;;;14.00;99.90;;;;;;5012498;28;20056;-77
2024/03/04 11:06:58;;;;;;;8.80;5.70;;;14.10;99.90;;;;;;5031338;28;20466;-75
2024/03/04 11:09:25;;;;;;;8.93;6.00;;;14.20;99.90;;;;;;5031317;28;20109;-75
2024/03/04 11:11:57;;;;;;;12.13;8.63;;;14.00;99.90;;;;;;5033967;28;20083;-74
2024/03/04 11:14:33;;;;;;;13.15;10.13;;;13.90;99.90;;;;;;5016512;28;20492;-80
2024/03/04 11:17:11;;;;;;;14.88;11.35;;;13.90;99.90;;;;;;5034845;28;20021;-75
2024/03/04 11:19:53;;;;;;;13.57;10.38;;;14.00;99.90;;;;;;5034210;28;20041;-75
2024/03/04 11:22:19;;;;;;;11.45;9.00;;;14.30;99.90;;;;;;5014872;28;20048;-74
2024/03/04 11:24:48;;;;;;;10.73;9.52;;;14.10;99.90;;;;;;5004965;28;20179;-74
2024/03/04 11:27:16;;;;;;;12.75;10.65;;;14.20;99.90;;;;;;5021955;28;20073;-73
2024/03/04 11:29:42;;;;;;;17.60;12.02;;;14.20;99.90;;;;;;5016165;28;20018;-77
2024/03/04 11:32:09;;;;;;;16.98;10.77;;;14.30;99.90;;;;;;5020984;28;20064;-73
2024/03/04 11:35:10;;;;;;;14.50;9.73;;;14.20;99.90;;;;;;5023745;28;20029;-79
2024/03/04 11:37:53;;;;;;;12.73;9.15;;;14.30;99.90;;;;;;5003803;28;20036;-82
2024/03/04 11:40:24;;;;;;;;;;;14.50;99.90;;;;;;5020182;28;20030;-70
2024/03/04 11:42:50;;;;;;;9.95;7.43;;;14.50;99.90;;;;;;5018499;28;20867;-73
2024/03/04 11:45:21;;;;;;;10.38;8.50;;;14.60;99.90;;;;;;5023704;28;20029;-74
2024/03/04 11:47:48;;;;;;;8.77;7.43;;;14.60;99.90;;;;;;5018869;28;20022;-73
2024/03/04 11:50:43;;;;;;;10.02;9.00;;;14.80;99.90;;;;;;5019440;28;20026;-73
2024/03/04 11:53:26;;;;;;;9.90;8.50;;;14.90;99.90;;;;;;5019491;28;20014;-73
2024/03/04 11:55:52;;;;;;;;;;;14.90;99.90;;;;;;5021791;28;20029;-72
2024/03/04 11:58:18;;;;;;;12.35;8.32;;;14.90;99.90;;;;;;5019580;28;20320;-74
2024/03/04 12:00:45;;;;;;;10.48;8.48;;;15.10;99.90;;;;;;5018126;28;20691;-73
2024/03/04 12:03:14;;;;;;;9.23;8.20;;;15.20;99.90;;;;;;5021252;28;20026;-73
2024/03/04 12:05:40;;;;;;;8.77;7.97;;;15.20;99.90;;;;;;5018543;28;20481;-73
2024/03/04 12:08:07;;;;;;;10.98;8.75;;;15.20;99.90;;;;;;5019886;28;20031;-73
2024/03/04 12:10:36;;;;;;;9.02;7.72;;;15.10;99.90;;;;;;5003902;28;20084;-73
2024/03/04 12:13:02;;;;;;;9.75;7.65;;;15.30;99.90;;;;;;5021469;28;20127;-74
2024/03/04 12:15:28;;;;;;;8.27;7.57;;;15.30;99.90;;;;;;5007130;28;20013;-74
2024/03/04 12:17:54;;;;;;;6.95;6.35;;;15.40;99.90;;;;;;5017085;28;20096;-73
2024/03/04 12:20:20;;;;;;;7.20;6.50;;;15.40;99.90;;;;;;5001249;28;20037;-73
2024/03/04 12:22:46;;;;;;;6.68;5.80;;;15.30;99.90;;;;;;5019639;28;20033;-73
2024/03/04 12:25:12;;;;;;;6.72;6.03;;;15.30;99.90;;;;;;5018278;28;20017;-72
2024/03/04 12:27:41;;;;;;;6.03;5.50;;;15.40;99.90;;;;;;5021485;28;20393;-74
2024/03/04 12:30:17;;;;;;;11.98;6.63;;;15.40;99.90;;;;;;5014276;28;20382;-72
2024/03/04 12:32:47;;;;;;;7.32;6.65;;;15.40;99.90;;;;;;5021829;28;20036;-73
2024/03/04 12:35:32;;;;;;;8.13;5.80;;;15.40;99.90;;;;;;5017191;28;20069;-73
2024/03/04 12:37:59;;;;;;;6.60;6.00;;;15.50;99.90;;;;;;5020892;28;20022;-72
2024/03/04 12:40:25;;;;;;;8.45;7.63;;;15.50;99.90;;;;;;5021070;28;20568;-74
2024/03/04 12:43:03;;;;;;;8.77;7.97;;;15.50;99.90;;;;;;5023241;28;20041;-73